Time;durP1;ratioP1;P1;durP2;ratioP2;P2;SDS_P1;SDS_P2;PMS_P1;PMS_P2;Temp;Humidity;BMP_temperature;BMP_pressure;BME280_temperature;BME280_humidity;BME280_pressure;Samples;Min_cycle;Max_cycle;Signal;HPM_P1;HPM_P2
2022/03/06 00:00:18;;;;;;;;;;;;;;;16.97;50.56;101321.59;4995739;28;1102;-32
2022/03/06 00:02:44;;;;;;;;;;;;;;;16.99;50.42;101331.22;4995736;28;1000;-32
2022/03/06 00:05:12;;;;;;;;;;;;;;;17.07;50.01;101318.16;4995144;28;1977;-32
2022/03/06 00:07:38;;;;;;;;;;;;;;;16.99;49.92;101315.19;4995319;28;1843;-32
2022/03/06 00:10:05;;;;;;;;;;;;;;;17.08;49.79;101311.84;4995440;28;1059;-32
2022/03/06 00:12:32;;;;;;;;;;;;;;;17.11;50.66;101326.81;4995529;28;2075;-32
2022/03/06 00:15:06;;;;;;;;;;;;;;;17.03;50.52;101323.81;4995467;28;1032;-32
2022/03/06 00:17:33;;;;;;;;;;;;;;;17.14;50.91;101325.75;4995461;28;1090;-32
2022/03/06 00:20:01;;;;;;;;;;;;;;;17.04;50.72;101320.19;4995028;28;1132;-32
2022/03/06 00:22:29;;;;;;;;;;;;;;;16.98;50.53;101325.97;4994970;28;1136;-32
2022/03/06 00:24:57;;;;;;;;;;;;;;;17.05;49.92;101320.09;4995257;28;1160;-32
2022/03/06 00:27:24;;;;;;;;;;;;;;;17.10;50.42;101341.97;4994913;28;1902;-32
2022/03/06 00:29:50;;;;;;;;;;;;;;;17.04;49.92;101323.72;4995239;28;1171;-32
2022/03/06 00:32:17;;;;;;;;;;;;;;;17.10;49.98;101325.94;4995085;28;1008;-32
2022/03/06 00:34:44;;;;;;;;;;;;;;;17.07;50.31;101330.69;4995140;28;1128;-32
2022/03/06 00:37:11;;;;;;;;;;;;;;;17.06;50.49;101323.63;4994765;28;1145;-32
2022/03/06 00:39:39;;;;;;;;;;;;;;;17.04;50.03;101326.38;4994753;28;1112;-32
2022/03/06 00:42:07;;;;;;;;;;;;;;;17.00;50.38;101324.91;4995005;28;1001;-32
2022/03/06 00:44:34;;;;;;;;;;;;;;;17.10;49.79;101325.09;4994837;28;1228;-32
2022/03/06 00:47:00;;;;;;;;;;;;;;;17.16;50.30;101319.31;4994862;28;1906;-32
2022/03/06 00:49:27;;;;;;;;;;;;;;;17.17;50.27;101329.06;4994856;28;1083;-32
2022/03/06 00:51:53;;;;;;;;;;;;;;;17.12;49.99;101327.66;4994854;28;1084;-32
2022/03/06 00:54:20;;;;;;;;;;;;;;;17.03;50.27;101340.72;4994826;28;993;-32
2022/03/06 00:56:48;;;;;;;;;;;;;;;17.10;50.03;101331.28;4994373;28;1160;-32
2022/03/06 00:59:15;;;;;;;;;;;;;;;17.21;49.80;101332.34;4994401;28;1085;-32
2022/03/06 01:01:42;;;;;;;;;;;;;;;17.12;50.35;101333.00;4994687;28;1000;-32
2022/03/06 01:04:08;;;;;;;;;;;;;;;17.18;49.73;101327.22;4994333;28;1088;-32
2022/03/06 01:06:35;;;;;;;;;;;;;;;17.17;50.81;101320.16;4994142;28;1914;-32
2022/03/06 01:09:08;;;;;;;;;;;;;;;17.19;50.11;101331.59;4994198;28;1254;-32
2022/03/06 01:11:35;;;;;;;;;;;;;;;17.24;50.25;101338.31;4994250;28;1085;-32
2022/03/06 01:14:03;;;;;;;;;;;;;;;17.34;49.47;101346.53;4994512;28;1254;-32
2022/03/06 01:16:30;;;;;;;;;;;;;;;17.22;50.22;101329.56;4993760;28;1032;-32
2022/03/06 01:18:56;;;;;;;;;;;;;;;17.25;50.60;101325.84;4994208;28;1128;-32
2022/03/06 01:21:23;;;;;;;;;;;;;;;17.16;50.73;101322.00;4994338;28;1013;-32
2022/03/06 01:23:49;;;;;;;;;;;;;;;17.19;50.34;101297.72;4994421;28;1084;-32
2022/03/06 01:26:17;;;;;;;;;;;;;;;17.10;50.14;101314.41;4994318;28;1985;-32
2022/03/06 01:28:43;;;;;;;;;;;;;;;17.16;50.62;101305.09;4994068;28;1152;-32
2022/03/06 01:31:11;;;;;;;;;;;;;;;17.10;50.51;101317.94;4993999;28;1080;-32
2022/03/06 01:33:38;;;;;;;;;;;;;;;17.18;50.24;101295.16;4993896;28;1096;-32
2022/03/06 01:36:05;;;;;;;;;;;;;;;17.21;50.28;101290.44;4994299;28;1028;-32
2022/03/06 01:38:32;;;;;;;;;;;;;;;17.14;49.93;101293.69;4993989;28;1172;-32
2022/03/06 01:40:58;;;;;;;;;;;;;;;16.42;51.33;101291.56;4994086;28;1151;-32
2022/03/06 01:43:24;;;;;;;;;;;;;;;15.91;53.87;101297.66;4994220;28;1004;-32
2022/03/06 01:45:51;;;;;;;;;;;;;;;15.75;53.21;101299.63;4993636;28;1977;-32
2022/03/06 01:48:19;;;;;;;;;;;;;;;16.24;52.74;101291.00;4994455;28;1213;-32
2022/03/06 01:50:45;;;;;;;;;;;;;;;16.46;52.07;101298.41;4993899;28;1093;-32
2022/03/06 01:53:13;;;;;;;;;;;;;;;16.58;51.03;101300.22;4993831;28;1592;-32
2022/03/06 01:55:39;;;;;;;;;;;;;;;16.67;50.99;101294.25;4993794;28;1120;-32
2022/03/06 01:58:07;;;;;;;;;;;;;;;16.79;50.64;101294.31;4994070;28;1079;-32
2022/03/06 02:00:35;;;;;;;;;;;;;;;16.85;50.49;101288.56;4993754;28;1164;-32
2022/03/06 02:03:01;;;;;;;;;;;;;;;16.93;50.45;101296.03;4993752;28;1122;-32
2022/03/06 02:05:29;;;;;;;;;;;;;;;16.89;50.57;101298.06;4993959;28;1393;-32
2022/03/06 02:08:03;;;;;;;;;;;;;;;16.94;50.18;101298.63;4993358;28;1906;-32
2022/03/06 02:10:29;;;;;;;;;;;;;;;16.99;50.37;101307.19;4994141;28;1092;-32
2022/03/06 02:12:56;;;;;;;;;;;;;;;17.01;51.13;101310.59;4993942;28;1086;-32
2022/03/06 02:15:22;;;;;;;;;;;;;;;16.99;50.33;101307.19;4993893;28;1112;-32
2022/03/06 02:17:49;;;;;;;;;;;;;;;16.99;50.52;101304.50;4993898;28;1040;-32
2022/03/06 02:20:16;;;;;;;;;;;;;;;17.02;50.15;101301.59;4993594;28;1214;-32
2022/03/06 02:22:45;;;;;;;;;;;;;;;17.01;50.13;101307.91;4993563;28;1073;-32
2022/03/06 02:25:13;;;;;;;;;;;;;;;16.89;51.40;101301.63;4993540;28;1172;-32
2022/03/06 02:27:39;;;;;;;;;;;;;;;17.01;50.85;101305.25;4995774;28;1973;-32
2022/03/06 02:30:06;;;;;;;;;;;;;;;17.01;49.99;101304.38;4997470;28;1080;-32
2022/03/06 02:32:33;;;;;;;;;;;;;;;16.99;50.50;101308.97;4997102;28;1137;-32
2022/03/06 02:35:00;;;;;;;;;;;;;;;17.04;50.21;101307.69;4997386;28;968;-32
2022/03/06 02:37:26;;;;;;;;;;;;;;;17.25;50.45;101304.47;4997318;28;1008;-32
2022/03/06 02:39:54;;;;;;;;;;;;;;;17.18;50.43;101313.88;4997290;28;1083;-32
2022/03/06 02:42:24;;;;;;;;;;;;;;;17.15;49.86;101311.41;4996928;28;1084;-32
2022/03/06 02:44:51;;;;;;;;;;;;;;;17.13;50.22;101316.88;4996841;28;1165;-32
2022/03/06 02:47:18;;;;;;;;;;;;;;;17.13;49.75;101316.00;4997054;28;1906;-32
2022/03/06 02:49:44;;;;;;;;;;;;;;;17.17;50.09;101314.81;4997087;28;1089;-32
2022/03/06 02:52:11;;;;;;;;;;;;;;;17.16;50.23;101313.97;4997058;28;1087;-32
2022/03/06 02:54:37;;;;;;;;;;;;;;;17.23;50.58;101309.03;4996731;28;1192;-32
2022/03/06 02:57:05;;;;;;;;;;;;;;;17.23;50.23;101298.34;4996599;28;957;-32
2022/03/06 02:59:31;;;;;;;;;;;;;;;17.14;50.63;101313.22;4997221;28;1961;-32
2022/03/06 03:01:58;;;;;;;;;;;;;;;17.30;50.15;101316.50;5140539;23;3742;-32
2022/03/06 03:04:25;;;;;;;;;;;;;;;17.19;50.76;101315.56;5036237;28;1189;-32
2022/03/06 03:06:52;;;;;;;;;;;;;;;17.19;50.51;101302.19;5036216;28;1906;-31
2022/03/06 03:09:20;;;;;;;;;;;;;;;17.10;49.89;101309.06;5036138;28;1015;-32
2022/03/06 03:11:46;;;;;;;;;;;;;;;17.29;50.10;101304.13;5036127;28;1085;-32
2022/03/06 03:14:15;;;;;;;;;;;;;;;17.22;49.62;101310.00;5035668;28;1013;-32
2022/03/06 03:16:41;;;;;;;;;;;;;;;17.14;50.08;101315.91;5036009;28;1086;-32
2022/03/06 03:19:08;;;;;;;;;;;;;;;17.12;51.00;101328.53;5035521;28;1079;-32
2022/03/06 03:21:34;;;;;;;;;;;;;;;17.16;50.71;101303.28;5035627;28;1006;-32
2022/03/06 03:24:01;;;;;;;;;;;;;;;17.17;49.76;101301.44;5035595;28;1080;-32
2022/03/06 03:26:27;;;;;;;;;;;;;;;17.25;50.72;101309.81;5035451;28;1906;-32
2022/03/06 03:28:54;;;;;;;;;;;;;;;17.32;49.98;101316.38;5035821;28;1069;-32
2022/03/06 03:31:21;;;;;;;;;;;;;;;17.36;50.38;101317.88;5035759;28;1094;-32
2022/03/06 03:33:48;;;;;;;;;;;;;;;17.32;50.35;101321.75;5035673;28;1247;-32
2022/03/06 03:36:15;;;;;;;;;;;;;;;17.36;50.25;101315.19;5035834;28;1093;-32
2022/03/06 03:38:41;;;;;;;;;;;;;;;17.33;50.19;101314.56;5034488;28;1079;-32
2022/03/06 03:41:08;;;;;;;;;;;;;;;17.37;50.05;101314.25;5035194;28;1134;-32
2022/03/06 03:43:35;;;;;;;;;;;;;;;17.23;50.25;101333.09;5035180;28;1169;-32
2022/03/06 03:46:01;;;;;;;;;;;;;;;17.22;50.39;101339.41;5035251;28;1076;-31
2022/03/06 03:48:30;;;;;;;;;;;;;;;17.22;50.62;101336.72;5035324;28;1906;-32
2022/03/06 03:50:57;;;;;;;;;;;;;;;17.11;49.93;101332.16;5035067;28;1072;-32
2022/03/06 03:53:24;;;;;;;;;;;;;;;17.16;49.84;101345.19;5035471;28;1069;-32
2022/03/06 03:55:52;;;;;;;;;;;;;;;17.31;50.52;101336.09;5035403;28;1004;-32
2022/03/06 03:58:18;;;;;;;;;;;;;;;17.25;49.88;101336.53;5034916;28;1150;-32
2022/03/06 04:00:44;;;;;;;;;;;;;;;17.35;50.31;101337.56;5035053;28;1485;-32
2022/03/06 04:03:11;;;;;;;;;;;;;;;17.30;50.38;101345.06;5034768;28;1520;-32
2022/03/06 04:05:39;;;;;;;;;;;;;;;17.20;50.50;101346.69;5034887;28;1174;-32
2022/03/06 04:08:06;;;;;;;;;;;;;;;17.26;49.83;101351.59;5035026;28;1981;-32
2022/03/06 04:10:32;;;;;;;;;;;;;;;17.26;50.67;101352.44;5035226;28;1169;-32
2022/03/06 04:12:59;;;;;;;;;;;;;;;17.33;50.45;101352.00;5034612;28;1153;-32
2022/03/06 04:15:25;;;;;;;;;;;;;;;17.28;50.04;101347.81;5035158;28;998;-32
2022/03/06 04:17:52;;;;;;;;;;;;;;;17.33;49.36;101342.19;5034492;28;1167;-32
2022/03/06 04:20:18;;;;;;;;;;;;;;;17.30;50.30;101345.06;5034519;28;1142;-32
2022/03/06 04:22:46;;;;;;;;;;;;;;;17.33;50.23;101354.66;5034447;28;1139;-32
2022/03/06 04:25:13;;;;;;;;;;;;;;;17.41;50.29;101339.78;5034706;28;1162;-32
2022/03/06 04:27:39;;;;;;;;;;;;;;;17.34;50.30;101340.34;5034862;28;1972;-32
2022/03/06 04:30:06;;;;;;;;;;;;;;;17.34;50.05;101335.00;5034293;28;1107;-31
2022/03/06 04:32:33;;;;;;;;;;;;;;;17.38;50.36;101337.34;5034243;28;1092;-32
2022/03/06 04:34:59;;;;;;;;;;;;;;;17.23;50.58;101346.44;5034237;28;1108;-32
2022/03/06 04:37:26;;;;;;;;;;;;;;;17.20;50.67;101338.66;5034500;28;1055;-32
2022/03/06 04:39:54;;;;;;;;;;;;;;;17.25;50.34;101344.53;5034123;28;1270;-32
2022/03/06 04:42:20;;;;;;;;;;;;;;;17.21;50.90;101343.91;5034040;28;1083;-32
2022/03/06 04:44:47;;;;;;;;;;;;;;;17.25;50.38;101340.03;5034092;28;1204;-32
2022/03/06 04:47:13;;;;;;;;;;;;;;;16.70;51.63;101359.94;5033957;28;1905;-32
2022/03/06 04:49:40;;;;;;;;;;;;;;;16.09;52.25;101349.78;5034184;28;1146;-32
2022/03/06 04:52:06;;;;;;;;;;;;;;;16.15;51.93;101361.84;5033965;28;1111;-32
2022/03/06 04:54:33;;;;;;;;;;;;;;;16.62;51.89;101363.13;5034154;28;1169;-31
2022/03/06 04:57:01;;;;;;;;;;;;;;;16.68;51.81;101354.69;5034406;28;1051;-31
2022/03/06 04:59:28;;;;;;;;;;;;;;;16.75;50.84;101354.25;5034124;28;1063;-32
2022/03/06 05:01:54;;;;;;;;;;;;;;;16.95;50.20;101355.56;5033562;28;1363;-32
2022/03/06 05:04:21;;;;;;;;;;;;;;;17.02;50.45;101348.84;5033685;28;1087;-32
2022/03/06 05:06:47;;;;;;;;;;;;;;;17.06;50.13;101353.84;5033980;28;1975;-32
2022/03/06 05:09:14;;;;;;;;;;;;;;;17.08;50.28;101365.28;5033994;28;1051;-31
2022/03/06 05:11:41;;;;;;;;;;;;;;;17.04;50.51;101363.78;5033938;28;1067;-32
2022/03/06 05:14:09;;;;;;;;;;;;;;;17.09;50.78;101367.00;5033914;28;995;-32
2022/03/06 05:16:35;;;;;;;;;;;;;;;17.05;50.90;101354.84;5033629;28;1088;-32
2022/03/06 05:19:02;;;;;;;;;;;;;;;17.06;50.27;101363.69;5033464;28;1151;-31
2022/03/06 05:21:28;;;;;;;;;;;;;;;17.03;50.09;101359.44;5033860;28;1057;-32
2022/03/06 05:23:54;;;;;;;;;;;;;;;17.18;50.89;101373.50;5033829;28;1006;-32
2022/03/06 05:26:21;;;;;;;;;;;;;;;17.24;50.07;101366.88;5033777;28;1019;-32
2022/03/06 05:28:47;;;;;;;;;;;;;;;17.24;50.05;101354.38;5033312;28;1902;-32
2022/03/06 05:31:16;;;;;;;;;;;;;;;17.29;50.49;101370.94;5033417;28;1103;-32
2022/03/06 05:33:42;;;;;;;;;;;;;;;17.31;50.09;101370.84;5033666;28;1076;-32
2022/03/06 05:36:08;;;;;;;;;;;;;;;17.28;50.41;101371.88;5033911;28;2045;-32
2022/03/06 05:38:35;;;;;;;;;;;;;;;17.23;50.13;101365.16;5033645;28;1004;-32
2022/03/06 05:41:02;;;;;;;;;;;;;;;17.31;50.28;101365.50;5033139;28;1124;-32
2022/03/06 05:43:28;;;;;;;;;;;;;;;17.30;50.46;101374.47;5033313;28;1139;-32
2022/03/06 05:45:55;;;;;;;;;;;;;;;17.32;49.77;101377.88;5033164;28;1095;-32
2022/03/06 05:48:23;;;;;;;;;;;;;;;17.26;50.33;101363.13;5033442;28;1977;-32
2022/03/06 05:50:49;;;;;;;;;;;;;;;17.27;50.24;101372.03;5033797;28;998;-32
2022/03/06 05:53:16;;;;;;;;;;;;;;;17.38;49.58;101372.09;5033428;28;1085;-32
2022/03/06 05:55:43;;;;;;;;;;;;;;;17.34;49.85;101381.28;5033189;28;1076;-32
2022/03/06 05:58:09;;;;;;;;;;;;;;;17.24;49.80;101377.56;5033455;28;1051;-32
2022/03/06 06:00:36;;;;;;;;;;;;;;;17.36;50.45;101384.72;5033127;28;1080;-31
2022/03/06 06:03:02;;;;;;;;;;;;;;;17.27;50.18;101372.03;5035851;28;1414;-32
2022/03/06 06:05:31;;;;;;;;;;;;;;;17.28;50.58;101376.38;5037129;28;1156;-31
2022/03/06 06:07:58;;;;;;;;;;;;;;;17.32;49.83;101382.38;5036960;28;1910;-32
2022/03/06 06:10:24;;;;;;;;;;;;;;;17.32;50.63;101383.22;5036977;28;1075;-32
2022/03/06 06:12:51;;;;;;;;;;;;;;;17.33;50.54;101374.25;5036902;28;1290;-32
2022/03/06 06:15:17;;;;;;;;;;;;;;;17.43;50.43;101385.16;5037110;28;1099;-32
2022/03/06 06:17:44;;;;;;;;;;;;;;;17.38;50.31;101390.81;5037349;28;1000;-32
2022/03/06 06:20:12;;;;;;;;;;;;;;;17.41;49.73;101377.22;5037081;28;994;-32
2022/03/06 06:22:39;;;;;;;;;;;;;;;17.37;50.55;101381.09;5037249;28;1089;-32
2022/03/06 06:25:06;;;;;;;;;;;;;;;17.42;50.29;101383.41;5036714;28;1156;-32
2022/03/06 06:27:33;;;;;;;;;;;;;;;17.61;49.72;101380.28;5036550;28;1906;-32
2022/03/06 06:29:59;;;;;;;;;;;;;;;17.59;49.51;101382.22;5036557;28;1159;-32
2022/03/06 06:32:25;;;;;;;;;;;;;;;17.52;49.98;101372.91;5037286;28;2262;-32
2022/03/06 06:34:52;;;;;;;;;;;;;;;17.62;49.86;101369.44;5036520;28;1217;-32
2022/03/06 06:37:18;;;;;;;;;;;;;;;17.53;49.30;101377.28;5036471;28;1178;-32
2022/03/06 06:39:46;;;;;;;;;;;;;;;17.64;49.41;101377.38;5036424;28;1160;-32
2022/03/06 06:42:13;;;;;;;;;;;;;;;17.23;50.84;101389.22;5036613;28;1080;-32
2022/03/06 06:44:39;;;;;;;;;;;;;;;17.02;50.60;101397.78;5036664;28;1084;-31
2022/03/06 06:47:06;;;;;;;;;;;;;;;17.15;50.28;101391.56;5036770;28;1906;-31
2022/03/06 06:49:32;;;;;;;;;;;;;;;17.19;50.43;101387.72;5036266;28;1107;-32
2022/03/06 06:51:59;;;;;;;;;;;;;;;17.42;50.21;101400.31;5036490;28;1066;-32
2022/03/06 06:54:25;;;;;;;;;;;;;;;17.47;49.80;101394.66;5036600;28;1085;-32
2022/03/06 06:56:53;;;;;;;;;;;;;;;17.42;49.88;101386.09;5036423;28;1008;-32
2022/03/06 06:59:20;;;;;;;;;;;;;;;17.39;50.52;101402.34;5036069;28;1068;-32
2022/03/06 07:01:46;;;;;;;;;;;;;;;17.36;50.30;101395.41;5035898;28;1376;-32
2022/03/06 07:04:12;;;;;;;;;;;;;;;17.28;50.53;101392.44;5036250;28;1027;-31
2022/03/06 07:06:39;;;;;;;;;;;;;;;17.30;50.38;101386.00;5036185;28;1043;-32
2022/03/06 07:09:05;;;;;;;;;;;;;;;17.38;50.44;101392.63;5035881;28;2048;-32
2022/03/06 07:11:32;;;;;;;;;;;;;;;17.34;50.36;101410.69;5035840;28;1097;-32
2022/03/06 07:14:00;;;;;;;;;;;;;;;17.33;50.15;101379.59;5034832;28;1107;-32
2022/03/06 07:16:26;;;;;;;;;;;;;;;17.37;50.39;101393.56;5036075;28;1078;-32
2022/03/06 07:18:53;;;;;;;;;;;;;;;17.35;50.46;101396.38;5035864;28;1092;-32
2022/03/06 07:21:20;;;;;;;;;;;;;;;17.38;50.39;101390.81;5035970;28;1110;-32
2022/03/06 07:23:46;;;;;;;;;;;;;;;17.47;50.25;101395.50;5035570;28;1067;-32
2022/03/06 07:26:13;;;;;;;;;;;;;;;17.43;49.87;101391.34;5035857;28;1069;-32
2022/03/06 07:28:39;;;;;;;;;;;;;;;17.36;50.11;101394.56;5035678;28;1976;-32
2022/03/06 07:31:07;;;;;;;;;;;;;;;17.39;50.28;101391.66;5035766;28;1059;-32
2022/03/06 07:33:34;;;;;;;;;;;;;;;17.38;49.69;101389.94;5035438;28;1048;-32
2022/03/06 07:36:00;;;;;;;;;;;;;;;17.37;49.75;101382.88;5035413;28;931;-32
2022/03/06 07:38:27;;;;;;;;;;;;;;;17.52;49.77;101400.50;5035340;28;1150;-32
2022/03/06 07:40:53;;;;;;;;;;;;;;;17.45;49.92;101384.06;5035487;28;1082;-32
2022/03/06 07:43:19;;;;;;;;;;;;;;;17.46;50.21;101390.25;5035577;28;1087;-32
2022/03/06 07:45:46;;;;;;;;;;;;;;;17.44;50.24;101382.34;5035427;28;1082;-32
2022/03/06 07:48:14;;;;;;;;;;;;;;;17.36;50.48;101384.72;5035095;28;1906;-32
2022/03/06 07:50:40;;;;;;;;;;;;;;;17.47;49.94;101386.63;5035132;28;1132;-32
2022/03/06 07:53:08;;;;;;;;;;;;;;;17.44;50.41;101376.16;5035320;28;1006;-32
2022/03/06 07:55:35;;;;;;;;;;;;;;;17.38;50.38;101379.25;5035305;28;1012;-32
2022/03/06 07:58:01;;;;;;;;;;;;;;;17.40;50.37;101380.84;5035266;28;1156;-32
2022/03/06 08:00:28;;;;;;;;;;;;;;;17.44;50.05;101384.16;5034912;28;1156;-32
2022/03/06 08:02:56;;;;;;;;;;;;;;;17.47;50.19;101390.16;5034454;28;1304;-32
2022/03/06 08:05:24;;;;;;;;;;;;;;;17.49;50.29;101390.06;5035311;28;1934;-32
2022/03/06 08:07:50;;;;;;;;;;;;;;;17.49;49.99;101388.22;5034705;28;1909;-31
2022/03/06 08:10:17;;;;;;;;;;;;;;;17.57;49.68;101387.66;5035052;28;1069;-32
2022/03/06 08:12:43;;;;;;;;;;;;;;;17.46;49.97;101396.44;5034910;28;1003;-32
2022/03/06 08:15:10;;;;;;;;;;;;;;;17.43;50.44;101379.81;5034980;28;1066;-32
2022/03/06 08:17:37;;;;;;;;;;;;;;;17.48;50.02;101381.16;5034647;28;1120;-32
2022/03/06 08:20:04;;;;;;;;;;;;;;;17.55;49.65;101376.22;5034546;28;1104;-32
2022/03/06 08:22:32;;;;;;;;;;;;;;;17.60;49.37;101387.44;5034777;28;1104;-32
2022/03/06 08:24:58;;;;;;;;;;;;;;;17.63;49.26;101379.19;5034096;28;1079;-32
2022/03/06 08:27:25;;;;;;;;;;;;;;;17.61;49.67;101380.28;5033975;28;1100;-32
2022/03/06 08:29:51;;;;;;;;;;;;;;;17.49;49.68;101379.34;5034498;28;1906;-32
2022/03/06 08:32:18;;;;;;;;;;;;;;;17.56;49.85;101379.75;5034631;28;1100;-32
2022/03/06 08:34:44;;;;;;;;;;;;;;;17.59;49.25;101384.91;5034554;28;1062;-32
2022/03/06 08:37:11;;;;;;;;;;;;;;;17.57;49.67;101385.00;5034836;28;1089;-32
2022/03/06 08:39:38;;;;;;;;;;;;;;;17.57;49.49;101371.63;5034740;28;1093;-32
2022/03/06 08:42:05;;;;;;;;;;;;;;;17.61;49.82;101388.31;5034899;28;1008;-32
2022/03/06 08:44:32;;;;;;;;;;;;;;;17.61;49.63;101372.25;5034102;28;1135;-32
2022/03/06 08:46:58;;;;;;;;;;;;;;;17.65;49.64;101379.94;5034351;28;1160;-32
2022/03/06 08:49:25;;;;;;;;;;;;;;;17.60;49.30;101384.75;5033921;28;1985;-32
2022/03/06 08:51:51;;;;;;;;;;;;;;;17.60;49.50;101379.41;5033972;28;1193;-32
2022/03/06 08:54:18;;;;;;;;;;;;;;;17.62;49.57;101373.97;5034030;28;1127;-32
2022/03/06 08:56:45;;;;;;;;;;;;;;;17.64;49.79;101372.03;5033871;28;1092;-32
2022/03/06 08:59:12;;;;;;;;;;;;;;;17.74;49.37;101367.72;5034143;28;1092;-32
2022/03/06 09:01:38;;;;;;;;;;;;;;;17.68;49.42;101373.50;5033588;28;1302;-32
2022/03/06 09:04:05;;;;;;;;;;;;;;;17.81;49.20;101384.19;5033743;28;1134;-32
2022/03/06 09:06:32;;;;;;;;;;;;;;;17.72;49.71;101388.38;5034199;28;1028;-32
2022/03/06 09:08:58;;;;;;;;;;;;;;;17.65;49.86;101395.16;5033950;28;1985;-32
2022/03/06 09:11:24;;;;;;;;;;;;;;;17.58;49.60;101393.88;5033986;28;1039;-32
2022/03/06 09:13:52;;;;;;;;;;;;;;;17.59;50.07;101374.19;5033954;28;1089;-32
2022/03/06 09:16:19;;;;;;;;;;;;;;;17.63;49.70;101391.72;5033585;28;958;-32
2022/03/06 09:18:47;;;;;;;;;;;;;;;17.74;49.33;101389.09;5033528;28;1221;-31
2022/03/06 09:21:14;;;;;;;;;;;;;;;17.60;49.58;101376.72;5033957;28;1051;-32
2022/03/06 09:23:40;;;;;;;;;;;;;;;17.60;49.89;101379.41;5033805;28;1081;-32
2022/03/06 09:26:06;;;;;;;;;;;;;;;17.61;49.71;101389.16;5033802;28;1084;-32
2022/03/06 09:28:33;;;;;;;;;;;;;;;17.73;49.36;101374.03;5033698;28;1902;-31
2022/03/06 09:31:01;;;;;;;;;;;;;;;17.74;49.09;101366.88;5033322;28;1140;-32
2022/03/06 09:33:27;;;;;;;;;;;;;;;17.69;49.68;101367.22;5033717;28;996;-32
2022/03/06 09:35:54;;;;;;;;;;;;;;;17.69;49.63;101369.88;5033424;28;1151;-32
2022/03/06 09:38:20;;;;;;;;;;;;;;;17.77;49.38;101369.31;5033253;28;1019;-32
2022/03/06 09:40:47;;;;;;;;;;;;;;;17.81;48.99;101363.63;5033546;28;2076;-32
2022/03/06 09:43:15;;;;;;;;;;;;;;;17.83;49.43;101364.41;5033138;28;1143;-32
2022/03/06 09:45:42;;;;;;;;;;;;;;;17.84;49.20;101368.75;5033573;28;1150;-32
2022/03/06 09:48:11;;;;;;;;;;;;;;;17.76;49.26;101362.25;5033481;28;1910;-32
2022/03/06 09:50:37;;;;;;;;;;;;;;;17.77;49.55;101362.16;5033535;28;1052;-32
2022/03/06 09:53:04;;;;;;;;;;;;;;;17.79;49.39;101364.72;5033119;28;1084;-32
2022/03/06 09:55:31;;;;;;;;;;;;;;;17.71;49.58;101357.25;5033198;28;1080;-32
2022/03/06 09:57:58;;;;;;;;;;;;;;;17.79;49.27;101365.56;5033477;28;1032;-31
2022/03/06 10:00:24;;;;;;;;;;;;;;;17.73;49.78;101357.16;5033442;28;1024;-32
2022/03/06 10:02:51;;;;;;;;;;;;;;;17.70;49.65;101358.19;5033077;28;1943;-32
2022/03/06 10:05:27;;;;;;;;;;;;;;;17.68;49.45;101344.94;5032997;28;1091;-31
2022/03/06 10:07:53;;;;;;;;;;;;;;;17.69;49.89;101343.13;5033098;28;1127;-31
2022/03/06 10:10:35;;;;;;;;;;;;;;;17.84;49.36;101347.38;5033338;28;1973;-32
2022/03/06 10:13:06;;;;;;;;;;;;;;;17.79;49.24;101338.81;5033329;28;994;-31
2022/03/06 10:15:33;;;;;;;;;;;;;;;17.84;49.20;101333.97;5033559;28;1045;-31
2022/03/06 10:18:01;;;;;;;;;;;;;;;17.78;49.60;101330.88;5032924;28;1128;-32
2022/03/06 10:20:30;;;;;;;;;;;;;;;17.80;49.73;101329.81;5033242;28;1012;-32
2022/03/06 10:22:58;;;;;;;;;;;;;;;17.73;49.02;101323.22;5032942;28;1142;-32
2022/03/06 10:25:24;;;;;;;;;;;;;;;17.71;49.79;101314.44;5033231;28;1087;-32
2022/03/06 10:27:53;;;;;;;;;;;;;;;17.76;49.33;101319.44;5033124;28;1090;-32
2022/03/06 10:30:23;;;;;;;;;;;;;;;17.77;49.45;101308.66;5033078;28;1969;-31
2022/03/06 10:32:50;;;;;;;;;;;;;;;17.70;49.64;101318.91;5032916;28;1154;-32
2022/03/06 10:35:16;;;;;;;;;;;;;;;17.80;49.16;101303.03;5033112;28;1954;-32
2022/03/06 10:37:44;;;;;;;;;;;;;;;17.79;49.17;101306.72;5032826;28;1116;-31
2022/03/06 10:40:14;;;;;;;;;;;;;;;17.78;49.31;101294.28;5032811;28;1146;-31
2022/03/06 10:42:41;;;;;;;;;;;;;;;17.84;49.47;101303.72;5033572;28;1092;-32
2022/03/06 10:45:08;;;;;;;;;;;;;;;17.80;49.33;101286.16;5032751;28;1147;-32
2022/03/06 10:47:46;;;;;;;;;;;;;;;17.80;49.39;101297.69;5033096;28;1095;-32
2022/03/06 10:50:13;;;;;;;;;;;;;;;17.93;49.49;101294.16;5036189;28;1981;-32
2022/03/06 10:52:41;;;;;;;;;;;;;;;17.46;50.29;101269.94;5036540;28;1007;-32
2022/03/06 10:55:09;;;;;;;;;;;;;;;17.24;50.49;101289.38;5036411;28;1065;-32
2022/03/06 10:57:36;;;;;;;;;;;;;;;17.25;50.86;101291.09;5036107;28;1083;-31
2022/03/06 11:00:02;;;;;;;;;;;;;;;17.35;50.44;101281.44;5036079;28;1080;-32
2022/03/06 11:02:29;;;;;;;;;;;;;;;17.58;50.10;101286.91;5035875;28;1368;-32
2022/03/06 11:04:58;;;;;;;;;;;;;;;17.66;49.54;101281.81;5036511;28;1092;-32
2022/03/06 11:07:27;;;;;;;;;;;;;;;17.72;49.91;101283.19;5035896;28;1142;-32
2022/03/06 11:09:54;;;;;;;;;;;;;;;17.74;49.50;101282.09;5036352;28;1906;-32
2022/03/06 11:12:23;;;;;;;;;;;;;;;17.74;49.51;101270.56;5036124;28;1000;-31
2022/03/06 11:14:50;;;;;;;;;;;;;;;17.72;49.57;101267.16;5036107;28;1064;-32
2022/03/06 11:17:17;;;;;;;;;;;;;;;17.84;49.20;101266.25;5036021;28;1261;-32
2022/03/06 11:19:43;;;;;;;;;;;;;;;17.87;49.04;101261.53;5036003;28;1104;-32
2022/03/06 11:22:14;;;;;;;;;;;;;;;17.80;49.55;101268.28;5035978;28;1003;-31
2022/03/06 11:24:44;;;;;;;;;;;;;;;17.80;49.59;101249.53;5035943;28;1078;-31
2022/03/06 11:27:20;;;;;;;;;;;;;;;17.79;49.30;101252.34;5035916;28;1047;-31
2022/03/06 11:30:03;;;;;;;;;;;;;;;17.85;49.28;101257.28;5035698;28;1977;-32
2022/03/06 11:32:31;;;;;;;;;;;;;;;17.81;49.58;101255.78;5036025;28;1080;-32
2022/03/06 11:35:02;;;;;;;;;;;;;;;17.86;49.29;101249.09;5035737;28;1012;-31
2022/03/06 11:37:29;;;;;;;;;;;;;;;17.82;49.28;101254.78;5035686;28;1100;-32
2022/03/06 11:39:56;;;;;;;;;;;;;;;17.86;49.49;101241.09;5035314;28;1084;-32
2022/03/06 11:42:56;;;;;;;;;;;;;;;17.51;50.30;101246.41;5035441;28;966;-32
2022/03/06 11:45:40;;;;;;;;;;;;;;;17.30;50.80;101238.13;4974492;28;1017;-31
2022/03/06 11:48:08;;;;;;;;;;;;;;;17.19;51.09;101232.72;4970140;28;1635;-31
2022/03/06 11:50:38;;;;;;;;;;;;;;;17.57;50.50;101243.25;4992517;28;1951;-32
2022/03/06 11:53:22;;;;;;;;;;;;;;;17.94;49.56;101234.31;5024107;28;1596;-32
2022/03/06 11:56:03;;;;;;;;;;;;;;;17.93;49.67;101229.94;5014683;28;1378;-32
2022/03/06 11:58:47;;;;;;;;;;;;;;;17.85;49.84;101220.66;5025596;28;1521;-32
2022/03/06 12:01:27;;;;;;;;;;;;;;;17.87;50.45;101234.78;5013243;28;1649;-31
2022/03/06 12:04:01;;;;;;;;;;;;;;;17.96;50.75;101232.38;5015379;28;1069;-32
2022/03/06 12:06:28;;;;;;;;;;;;;;;17.99;50.30;101227.63;5015015;28;1083;-32
2022/03/06 12:08:55;;;;;;;;;;;;;;;18.08;50.16;101231.41;5029180;28;2003;-33
2022/03/06 12:11:22;;;;;;;;;;;;;;;18.07;50.20;101219.03;5030772;28;1813;-33
2022/03/06 12:13:49;;;;;;;;;;;;;;;18.06;50.29;101222.66;5024319;28;1362;-32
2022/03/06 12:16:17;;;;;;;;;;;;;;;18.21;49.81;101218.81;5016400;28;1320;-32
2022/03/06 12:19:01;;;;;;;;;;;;;;;18.23;49.81;101213.34;5028688;28;1685;-32
2022/03/06 12:21:37;;;;;;;;;;;;;;;18.12;50.15;101206.13;5033111;28;1476;-32
2022/03/06 12:24:10;;;;;;;;;;;;;;;18.07;50.15;101216.34;5032944;28;1445;-32
2022/03/06 12:26:44;;;;;;;;;;;;;;;18.12;50.28;101206.13;5034794;28;1082;-32
2022/03/06 12:29:10;;;;;;;;;;;;;;;18.20;50.16;101213.56;5029885;28;1910;-35
2022/03/06 12:31:37;;;;;;;;;;;;;;;18.25;49.57;101206.88;5030873;28;1635;-33
2022/03/06 12:34:34;;;;;;;;;;;;;;;18.57;49.17;101189.25;5022251;28;1757;-33
2022/03/06 12:37:01;;;;;;;;;;;;;;;18.80;47.74;101180.25;4955276;28;1549;-33
2022/03/06 12:39:28;;;;;;;;;;;;;;;18.36;49.52;101202.50;5001119;28;2610;-33
2022/03/06 12:41:54;;;;;;;;;;;;;;;17.58;50.76;101187.94;5015671;28;1640;-32
2022/03/06 12:44:24;;;;;;;;;;;;;;;17.54;50.75;101190.00;5014331;28;1084;-32
2022/03/06 12:46:51;;;;;;;;;;;;;;;17.23;52.06;101180.72;5028643;28;1663;-32
2022/03/06 12:49:20;;;;;;;;;;;;;;;17.12;52.46;101191.38;5034181;28;1906;-32